createdAt,value
2022-08-30T00:01:34.435Z,0.90
2022-08-30T00:04:03.422Z,0.90
2022-08-30T00:06:31.773Z,1.38
2022-08-30T00:08:59.824Z,1.02
2022-08-30T00:11:29.125Z,0.85
2022-08-30T00:13:58.577Z,0.80
2022-08-30T00:16:27.353Z,0.93
2022-08-30T00:18:55.410Z,1.10
2022-08-30T00:21:24.126Z,0.85
2022-08-30T00:23:51.975Z,0.90
2022-08-30T00:26:19.787Z,0.80
2022-08-30T00:28:47.755Z,0.85
2022-08-30T00:31:17.031Z,1.58
2022-08-30T00:33:45.118Z,1.00
2022-08-30T00:36:13.007Z,1.45
2022-08-30T00:38:40.855Z,0.70
2022-08-30T00:41:08.703Z,0.77
2022-08-30T00:43:37.068Z,0.80
2022-08-30T00:46:08.190Z,0.88
2022-08-30T00:48:41.545Z,0.70
2022-08-30T00:51:11.657Z,0.82
2022-08-30T00:53:43.317Z,1.00
2022-08-30T00:56:12.006Z,1.00
2022-08-30T00:58:45.394Z,1.10
2022-08-30T01:01:13.915Z,1.08
2022-08-30T01:03:44.352Z,1.00
2022-08-30T01:06:15.484Z,0.90
2022-08-30T01:08:43.785Z,0.90
2022-08-30T01:11:13.574Z,0.80
2022-08-30T01:13:41.891Z,0.60
2022-08-30T01:16:09.811Z,1.08
2022-08-30T01:18:39.646Z,0.73
2022-08-30T01:21:19.997Z,1.00
2022-08-30T01:23:53.686Z,0.70
2022-08-30T01:26:22.944Z,0.88
2022-08-30T01:28:56.207Z,0.70
2022-08-30T01:31:24.263Z,0.80
2022-08-30T01:33:52.115Z,0.95
2022-08-30T01:36:20.765Z,0.80
2022-08-30T01:38:54.015Z,1.60
2022-08-30T01:41:24.648Z,0.90
2022-08-30T01:43:54.652Z,0.90
2022-08-30T01:46:24.507Z,0.98
2022-08-30T01:48:54.547Z,0.80
2022-08-30T01:51:23.946Z,1.13
2022-08-30T01:53:53.499Z,1.13
2022-08-30T01:56:21.889Z,0.90
2022-08-30T01:58:50.251Z,0.93
2022-08-30T02:01:20.727Z,0.90
2022-08-30T02:03:49.008Z,1.00
2022-08-30T02:06:20.646Z,0.90
2022-08-30T02:08:48.895Z,0.95
2022-08-30T02:11:19.166Z,0.90
2022-08-30T02:13:47.452Z,0.90
2022-08-30T02:16:17.541Z,0.80
2022-08-30T02:18:45.615Z,0.80
2022-08-30T02:21:14.029Z,0.88
2022-08-30T02:23:41.990Z,1.10
2022-08-30T02:26:10.609Z,1.20
2022-08-30T02:28:49.496Z,1.10
2022-08-30T02:31:20.854Z,0.98
2022-08-30T02:33:50.847Z,0.98
2022-08-30T02:36:20.619Z,1.15
2022-08-30T02:38:48.573Z,0.90
2022-08-30T02:41:16.398Z,1.08
2022-08-30T02:43:45.572Z,0.98
2022-08-30T02:46:13.980Z,0.88
2022-08-30T02:48:41.815Z,1.10
2022-08-30T02:51:11.834Z,1.35
2022-08-30T02:53:40.406Z,1.00
2022-08-30T02:56:09.133Z,1.20
2022-08-30T02:58:37.252Z,1.02
2022-08-30T03:01:06.838Z,1.13
2022-08-30T03:03:34.823Z,1.10
2022-08-30T03:06:03.372Z,0.90
2022-08-30T03:08:31.366Z,1.10
2022-08-30T03:10:59.439Z,0.80
2022-08-30T03:13:27.671Z,0.90
2022-08-30T03:15:55.527Z,0.90
2022-08-30T03:18:25.291Z,1.00
2022-08-30T03:20:54.622Z,0.88
2022-08-30T03:23:24.070Z,1.05
2022-08-30T03:25:51.998Z,1.00
2022-08-30T03:28:19.870Z,0.75
2022-08-30T03:30:48.021Z,0.70
2022-08-30T03:33:16.392Z,0.88
2022-08-30T03:35:47.957Z,0.90
2022-08-30T03:38:16.058Z,0.70
2022-08-30T03:40:44.647Z,0.90
2022-08-30T03:43:12.525Z,0.75
2022-08-30T03:45:40.796Z,0.88
2022-08-30T03:48:08.752Z,0.80
2022-08-30T03:50:36.900Z,1.20
2022-08-30T03:53:05.993Z,0.73
2022-08-30T03:55:34.012Z,1.15
2022-08-30T03:58:01.803Z,1.08
2022-08-30T04:00:29.808Z,2.53
2022-08-30T04:02:57.548Z,1.00
2022-08-30T04:05:25.414Z,1.00
2022-08-30T04:07:53.405Z,0.88
2022-08-30T04:10:23.013Z,0.80
2022-08-30T04:12:51.613Z,0.80
2022-08-30T04:15:20.788Z,1.00
2022-08-30T04:17:48.977Z,1.05
2022-08-30T04:20:17.343Z,1.00
2022-08-30T04:22:45.366Z,1.33
2022-08-30T04:25:15.630Z,1.15
2022-08-30T04:27:46.278Z,0.90
2022-08-30T04:30:15.182Z,0.80
2022-08-30T04:32:43.453Z,0.77
2022-08-30T04:35:12.013Z,1.00
2022-08-30T04:37:40.299Z,0.90
2022-08-30T04:40:09.955Z,0.90
2022-08-30T04:42:38.473Z,1.00
2022-08-30T04:45:11.653Z,0.98
2022-08-30T04:47:40.011Z,1.10
2022-08-30T04:50:10.029Z,0.70
2022-08-30T04:52:38.330Z,1.08
2022-08-30T04:55:08.729Z,1.10
2022-08-30T04:57:36.516Z,0.80
2022-08-30T05:00:08.355Z,0.90
2022-08-30T05:02:36.285Z,0.98
2022-08-30T05:05:22.125Z,0.80
2022-08-30T05:07:50.024Z,0.85
2022-08-30T05:10:18.015Z,1.00
2022-08-30T05:12:46.047Z,1.00
2022-08-30T05:15:15.457Z,0.82
2022-08-30T05:17:43.490Z,0.95
2022-08-30T05:20:13.231Z,0.98
2022-08-30T05:22:49.863Z,1.63
2022-08-30T05:25:23.847Z,1.00
2022-08-30T05:27:52.427Z,0.93
2022-08-30T05:30:23.321Z,1.00
2022-08-30T05:32:51.177Z,0.90
2022-08-30T05:35:24.969Z,0.80
2022-08-30T05:37:53.644Z,0.90
2022-08-30T05:40:22.442Z,0.70
2022-08-30T05:42:50.366Z,1.13
2022-08-30T05:45:18.504Z,0.98
2022-08-30T05:47:48.517Z,0.90
2022-08-30T05:50:16.707Z,0.80
2022-08-30T05:52:45.136Z,1.13
2022-08-30T05:55:13.420Z,0.90
2022-08-30T05:57:42.230Z,0.90
2022-08-30T06:00:13.426Z,1.00
2022-08-30T06:02:41.622Z,1.00
2022-08-30T06:05:13.054Z,0.93
2022-08-30T06:07:42.433Z,1.05
2022-08-30T06:10:12.493Z,1.08
2022-08-30T06:12:40.528Z,1.00
2022-08-30T06:15:09.277Z,0.70
2022-08-30T06:17:39.559Z,1.00
2022-08-30T06:20:09.040Z,0.80
2022-08-30T06:22:38.661Z,0.63
2022-08-30T06:25:07.554Z,1.42
2022-08-30T06:27:35.341Z,0.82
2022-08-30T06:30:03.113Z,0.90
2022-08-30T06:32:30.907Z,0.82
2022-08-30T06:34:58.645Z,0.90
2022-08-30T06:37:29.302Z,0.77
2022-08-30T06:39:59.537Z,0.80
2022-08-30T06:42:31.724Z,0.70
2022-08-30T06:44:59.947Z,0.70
2022-08-30T06:47:28.430Z,0.90
2022-08-30T06:49:56.299Z,0.90
2022-08-30T06:52:24.129Z,0.90
2022-08-30T06:54:52.285Z,0.80
2022-08-30T06:57:21.395Z,1.10
2022-08-30T06:59:49.228Z,0.90
2022-08-30T07:02:17.093Z,0.77
2022-08-30T07:04:44.983Z,0.80
2022-08-30T07:07:12.915Z,0.80
2022-08-30T07:09:43.302Z,1.48
2022-08-30T07:12:12.563Z,1.00
2022-08-30T07:14:42.967Z,0.75
2022-08-30T07:17:24.859Z,1.13
2022-08-30T07:19:52.693Z,1.00
2022-08-30T07:22:20.928Z,0.88
2022-08-30T07:24:49.379Z,0.80
2022-08-30T07:27:17.527Z,0.80
2022-08-30T07:29:46.695Z,0.95
2022-08-30T07:32:14.459Z,0.70
2022-08-30T07:34:42.219Z,0.80
2022-08-30T07:37:10.033Z,0.70
2022-08-30T07:39:47.941Z,0.85
2022-08-30T07:42:16.159Z,0.85
2022-08-30T07:44:44.469Z,1.05
2022-08-30T07:47:13.657Z,0.80
2022-08-30T07:49:41.481Z,0.77
2022-08-30T07:52:09.434Z,0.82
2022-08-30T07:54:37.433Z,0.88
2022-08-30T07:57:05.624Z,0.80
2022-08-30T07:59:36.104Z,0.60
2022-08-30T08:02:04.621Z,0.93
2022-08-30T08:04:35.519Z,0.80
2022-08-30T08:07:03.500Z,1.05
2022-08-30T08:09:31.539Z,1.10
2022-08-30T08:11:59.302Z,0.70
2022-08-30T08:14:28.347Z,0.80
2022-08-30T08:16:56.301Z,0.82
2022-08-30T08:19:24.199Z,0.70
2022-08-30T08:22:19.566Z,0.90
2022-08-30T08:24:44.441Z,0.77
2022-08-30T08:27:12.240Z,0.90
2022-08-30T08:29:40.077Z,0.90
2022-08-30T08:32:07.885Z,0.80
2022-08-30T08:34:36.440Z,0.88
2022-08-30T08:37:05.659Z,0.75
2022-08-30T08:39:33.470Z,0.85
2022-08-30T08:42:11.496Z,1.50
2022-08-30T08:44:54.395Z,0.80
2022-08-30T08:47:29.172Z,0.60
2022-08-30T08:50:00.518Z,0.80
2022-08-30T08:52:55.074Z,0.88
2022-08-30T08:55:24.697Z,0.73
2022-08-30T08:57:53.286Z,0.82
2022-08-30T09:00:21.191Z,0.80
2022-08-30T09:02:57.601Z,0.70
2022-08-30T09:05:28.714Z,0.60
2022-08-30T09:08:04.556Z,0.90
2022-08-30T09:10:49.799Z,0.68
2022-08-30T09:13:18.981Z,0.80
2022-08-30T09:15:51.121Z,0.65
2022-08-30T09:18:40.739Z,0.80
2022-08-30T09:21:11.504Z,0.88
2022-08-30T09:23:49.880Z,0.93
2022-08-30T09:26:30.082Z,1.00
2022-08-30T09:28:59.128Z,0.70
2022-08-30T09:31:30.438Z,0.70
2022-08-30T09:34:03.248Z,0.90
2022-08-30T09:36:35.597Z,0.70
2022-08-30T09:39:07.517Z,0.70
2022-08-30T09:41:42.801Z,0.60
2022-08-30T09:44:15.922Z,0.73
2022-08-30T09:46:55.509Z,0.75
2022-08-30T09:49:36.133Z,0.73
2022-08-30T09:52:19.195Z,0.63
2022-08-30T09:55:04.019Z,0.50
2022-08-30T09:57:40.858Z,0.93
2022-08-30T10:00:13.527Z,0.70
2022-08-30T10:02:59.663Z,0.60
2022-08-30T10:05:36.233Z,0.70
2022-08-30T10:08:12.979Z,0.80
2022-08-30T10:10:52.550Z,0.52
2022-08-30T10:13:42.646Z,0.65
2022-08-30T10:16:20.192Z,0.82
2022-08-30T10:18:52.923Z,0.70
2022-08-30T10:21:27.329Z,0.70
2022-08-30T10:23:59.555Z,0.80
2022-08-30T10:26:32.811Z,0.60
2022-08-30T10:29:05.362Z,0.98
2022-08-30T10:31:41.905Z,0.50
2022-08-30T10:34:15.299Z,0.70
2022-08-30T10:36:47.845Z,0.70
2022-08-30T10:39:22.160Z,0.50
2022-08-30T10:41:59.552Z,0.55
2022-08-30T10:44:31.313Z,0.52
2022-08-30T10:47:09.409Z,0.80
2022-08-30T10:49:42.817Z,0.55
2022-08-30T10:52:25.576Z,0.52
2022-08-30T10:54:58.616Z,0.57
2022-08-30T10:57:28.145Z,0.98
2022-08-30T11:00:00.997Z,0.43
2022-08-30T11:03:05.464Z,0.60
2022-08-30T11:05:56.795Z,0.60
2022-08-30T11:08:40.184Z,0.50
2022-08-30T11:11:17.031Z,0.50
2022-08-30T11:13:47.424Z,0.50
2022-08-30T11:16:19.095Z,0.60
2022-08-30T11:18:52.110Z,0.50
2022-08-30T11:21:33.970Z,0.60
2022-08-30T11:24:11.396Z,0.50
2022-08-30T11:27:01.234Z,1.05
2022-08-30T11:29:34.735Z,0.60
2022-08-30T11:32:23.482Z,0.63
2022-08-30T11:34:59.533Z,0.40
2022-08-30T11:37:38.499Z,0.70
2022-08-30T11:40:13.257Z,0.60
2022-08-30T11:42:45.805Z,0.50
2022-08-30T11:45:47.368Z,0.40
2022-08-30T11:48:40.025Z,0.40
2022-08-30T11:51:39.617Z,0.40
2022-08-30T11:54:22.924Z,0.30
2022-08-30T11:57:01.879Z,0.30
2022-08-30T11:59:39.345Z,0.20
2022-08-30T12:02:09.236Z,0.30
2022-08-30T12:04:44.286Z,0.30
2022-08-30T12:07:32.894Z,0.38
2022-08-30T12:10:07.831Z,0.30
2022-08-30T12:12:51.974Z,0.38
2022-08-30T12:15:59.062Z,0.30
2022-08-30T12:18:45.607Z,0.30
2022-08-30T12:21:24.477Z,0.30
2022-08-30T12:24:03.738Z,0.38
2022-08-30T12:26:36.077Z,0.25
2022-08-30T12:29:14.450Z,0.30
2022-08-30T12:31:45.045Z,0.20
2022-08-30T12:34:22.620Z,0.70
2022-08-30T12:36:58.962Z,0.40
2022-08-30T12:39:29.979Z,0.32
2022-08-30T12:41:58.826Z,0.30
2022-08-30T12:44:29.539Z,0.30
2022-08-30T12:47:02.981Z,0.20
2022-08-30T12:49:36.626Z,0.30
2022-08-30T12:52:22.864Z,0.20
2022-08-30T12:54:51.350Z,0.30
2022-08-30T12:57:38.804Z,0.30
2022-08-30T13:00:09.100Z,0.43
2022-08-30T13:02:46.910Z,0.30
2022-08-30T13:05:48.350Z,0.30
2022-08-30T13:08:22.521Z,0.30
2022-08-30T13:10:57.359Z,0.20
2022-08-30T13:13:33.218Z,0.20
2022-08-30T13:16:10.199Z,0.20
2022-08-30T13:18:38.229Z,0.20
2022-08-30T13:21:20.023Z,0.30
2022-08-30T13:23:49.461Z,0.20
2022-08-30T13:26:23.116Z,0.30
2022-08-30T13:28:54.159Z,0.40
2022-08-30T13:31:22.673Z,0.32
2022-08-30T13:33:53.138Z,0.30
2022-08-30T13:36:22.977Z,0.20
2022-08-30T13:38:53.885Z,0.30
2022-08-30T13:41:22.876Z,0.20
2022-08-30T13:46:42.090Z,0.20
2022-08-30T13:52:20.354Z,0.13
2022-08-30T13:54:51.413Z,0.40
2022-08-30T14:00:14.591Z,0.20
2022-08-30T14:02:48.994Z,0.30
2022-08-30T14:05:46.870Z,0.30
2022-08-30T14:08:44.241Z,0.20
2022-08-30T14:10:59.302Z,0.25
2022-08-30T14:13:29.323Z,0.28
2022-08-30T14:18:46.141Z,0.20
2022-08-30T14:21:13.983Z,0.20
2022-08-30T14:23:41.814Z,0.30
2022-08-30T14:26:15.455Z,0.20
2022-08-30T14:28:45.675Z,0.20
2022-08-30T14:31:14.571Z,0.30
2022-08-30T14:33:42.432Z,0.30
2022-08-30T14:36:15.560Z,0.30
2022-08-30T14:38:44.470Z,0.20
2022-08-30T14:41:13.810Z,0.40
2022-08-30T14:43:42.013Z,0.25
2022-08-30T14:46:11.405Z,0.40
2022-08-30T14:48:39.926Z,0.30
2022-08-30T14:51:14.543Z,0.40
2022-08-30T14:53:42.404Z,0.40
2022-08-30T14:56:12.274Z,0.30
2022-08-30T14:58:41.533Z,0.50
2022-08-30T15:01:10.886Z,0.30
2022-08-30T15:03:42.193Z,0.25
2022-08-30T15:06:10.384Z,0.60
2022-08-30T15:08:39.502Z,0.82
2022-08-30T15:11:09.767Z,0.15
2022-08-30T15:13:38.137Z,1.27
2022-08-30T15:16:14.030Z,0.30
2022-08-30T15:18:42.253Z,0.25
2022-08-30T15:21:10.165Z,0.30
2022-08-30T15:23:38.166Z,0.20
2022-08-30T15:26:08.141Z,0.20
2022-08-30T15:28:37.247Z,0.30
2022-08-30T15:31:09.173Z,0.30
2022-08-30T15:33:39.439Z,0.40
2022-08-30T15:36:08.518Z,0.57
2022-08-30T15:38:37.429Z,0.80
2022-08-30T15:41:07.913Z,0.32
2022-08-30T15:43:36.648Z,0.20
2022-08-30T15:46:22.465Z,0.40
2022-08-30T15:48:55.239Z,0.50
2022-08-30T15:51:23.951Z,0.40
2022-08-30T15:53:53.550Z,0.20
2022-08-30T15:56:22.269Z,0.40
2022-08-30T15:58:52.913Z,0.30
2022-08-30T16:01:30.447Z,0.40
2022-08-30T16:04:05.603Z,0.50
2022-08-30T16:06:37.534Z,0.28
2022-08-30T16:09:07.063Z,0.25
2022-08-30T16:11:36.739Z,0.40
2022-08-30T16:14:06.378Z,0.30
2022-08-30T16:16:35.309Z,0.40
2022-08-30T16:19:05.795Z,0.40
2022-08-30T16:21:36.998Z,0.50
2022-08-30T16:24:08.212Z,0.30
2022-08-30T16:26:39.535Z,0.30
2022-08-30T16:29:09.357Z,0.60
2022-08-30T16:31:38.148Z,0.40
2022-08-30T16:34:08.134Z,0.30
2022-08-30T16:36:37.115Z,0.40
2022-08-30T16:39:08.661Z,0.30
2022-08-30T16:41:37.699Z,0.40
2022-08-30T16:44:08.350Z,0.40
2022-08-30T16:46:37.419Z,0.32
2022-08-30T16:49:08.819Z,0.32
2022-08-30T16:51:39.327Z,0.40
2022-08-30T16:54:09.076Z,0.40
2022-08-30T16:56:38.744Z,0.30
2022-08-30T16:59:11.215Z,0.40
2022-08-30T17:01:42.429Z,0.22
2022-08-30T17:04:15.824Z,0.30
2022-08-30T17:06:47.263Z,0.30
2022-08-30T17:09:16.045Z,0.30
2022-08-30T17:11:45.025Z,0.32
2022-08-30T17:14:14.159Z,0.40
2022-08-30T17:16:43.352Z,0.30
2022-08-30T17:19:15.437Z,0.30
2022-08-30T17:21:45.051Z,0.35
2022-08-30T17:24:14.114Z,0.40
2022-08-30T17:26:43.264Z,0.30
2022-08-30T17:29:12.898Z,0.35
2022-08-30T17:31:46.535Z,0.40
2022-08-30T17:34:22.273Z,0.30
2022-08-30T17:36:52.807Z,0.35
2022-08-30T17:39:23.614Z,0.22
2022-08-30T17:41:52.875Z,0.60
2022-08-30T17:44:25.558Z,0.40
2022-08-30T17:46:55.101Z,0.40
2022-08-30T17:49:26.902Z,0.30
2022-08-30T17:51:57.102Z,0.30
2022-08-30T17:54:25.870Z,0.30
2022-08-30T17:56:55.285Z,0.40
2022-08-30T17:59:25.416Z,0.32
2022-08-30T18:01:54.812Z,0.47
2022-08-30T18:04:25.170Z,0.40
2022-08-30T18:06:54.358Z,0.40
2022-08-30T18:09:23.589Z,0.30
2022-08-30T18:11:56.268Z,0.90
2022-08-30T18:14:41.170Z,0.50
2022-08-30T18:17:10.942Z,0.47
2022-08-30T18:19:46.604Z,0.40
2022-08-30T18:22:16.041Z,0.30
2022-08-30T18:24:44.915Z,0.50
2022-08-30T18:27:13.334Z,0.40
2022-08-30T18:29:42.191Z,0.50
2022-08-30T18:32:11.640Z,0.50
2022-08-30T18:34:43.030Z,0.30
2022-08-30T18:37:12.645Z,0.40
2022-08-30T18:39:41.311Z,0.30
2022-08-30T18:42:10.331Z,0.40
2022-08-30T18:44:39.938Z,0.77
2022-08-30T18:47:09.680Z,0.70
2022-08-30T18:49:38.329Z,0.40
2022-08-30T18:52:10.942Z,0.47
2022-08-30T18:54:41.601Z,0.30
2022-08-30T18:57:10.673Z,0.40
2022-08-30T18:59:41.809Z,0.40
2022-08-30T19:02:14.241Z,0.45
2022-08-30T19:04:43.823Z,0.40
2022-08-30T19:07:16.598Z,0.47
2022-08-30T19:09:45.784Z,0.50
2022-08-30T19:12:15.250Z,0.43
2022-08-30T19:14:44.715Z,0.40
2022-08-30T19:17:13.618Z,0.30
2022-08-30T19:19:48.213Z,0.40
2022-08-30T19:22:21.870Z,0.50
2022-08-30T19:24:51.697Z,0.47
2022-08-30T19:27:37.793Z,0.50
2022-08-30T19:30:09.159Z,0.50
2022-08-30T19:32:38.322Z,0.30
2022-08-30T19:35:07.416Z,0.40
2022-08-30T19:37:39.378Z,0.50
2022-08-30T19:40:11.625Z,0.45
2022-08-30T19:42:45.963Z,0.55
2022-08-30T19:45:18.344Z,0.43
2022-08-30T19:47:47.394Z,0.43
2022-08-30T19:50:16.941Z,0.60
2022-08-30T19:52:53.763Z,0.60
2022-08-30T19:55:30.037Z,0.50
2022-08-30T19:57:59.284Z,0.52
2022-08-30T20:00:30.598Z,0.68
2022-08-30T20:02:59.863Z,0.45
2022-08-30T20:05:29.352Z,0.45
2022-08-30T20:07:59.728Z,0.45
2022-08-30T20:10:27.634Z,0.50
2022-08-30T20:12:55.573Z,0.47
2022-08-30T20:15:25.595Z,0.47
2022-08-30T20:18:05.041Z,0.30
2022-08-30T20:20:36.140Z,0.50
2022-08-30T20:23:06.365Z,0.43
2022-08-30T20:25:34.653Z,0.50
2022-08-30T20:28:03.493Z,0.30
2022-08-30T20:30:32.158Z,0.40
2022-08-30T20:33:05.068Z,0.57
2022-08-30T20:35:35.373Z,0.70
2022-08-30T20:38:06.451Z,0.40
2022-08-30T20:40:36.989Z,0.50
2022-08-30T20:43:05.818Z,0.50
2022-08-30T20:45:36.232Z,0.60
2022-08-30T20:48:05.687Z,0.35
2022-08-30T20:50:33.511Z,0.30
2022-08-30T20:53:01.565Z,0.50
2022-08-30T20:55:29.495Z,0.40
2022-08-30T20:57:58.592Z,0.40
2022-08-30T21:00:26.651Z,0.43
2022-08-30T21:02:55.594Z,0.30
2022-08-30T21:05:23.625Z,0.60
2022-08-30T21:07:51.395Z,0.40
2022-08-30T21:10:23.210Z,0.40
2022-08-30T21:12:51.611Z,0.40
2022-08-30T21:15:36.773Z,0.50
2022-08-30T21:18:05.887Z,0.50
2022-08-30T21:20:33.785Z,0.80
2022-08-30T21:23:01.598Z,0.55
2022-08-30T21:25:30.916Z,0.47
2022-08-30T21:27:58.735Z,0.40
2022-08-30T21:30:27.948Z,0.43
2022-08-30T21:33:00.030Z,0.40
2022-08-30T21:35:46.108Z,0.45
2022-08-30T21:38:14.190Z,0.40
2022-08-30T21:40:42.517Z,0.40
2022-08-30T21:43:10.702Z,0.50
2022-08-30T21:45:40.201Z,0.45
2022-08-30T21:48:08.535Z,0.50
2022-08-30T21:50:38.578Z,0.90
2022-08-30T21:53:06.671Z,0.60
2022-08-30T21:55:34.672Z,0.57
2022-08-30T21:58:02.650Z,0.55
2022-08-30T22:00:31.750Z,0.40
2022-08-30T22:03:01.062Z,0.60
2022-08-30T22:05:28.969Z,0.60
2022-08-30T22:07:56.874Z,0.70
2022-08-30T22:10:25.214Z,0.50
2022-08-30T22:12:53.003Z,0.50
2022-08-30T22:15:20.862Z,0.40
2022-08-30T22:17:48.634Z,0.50
2022-08-30T22:20:18.470Z,0.50
2022-08-30T22:22:46.755Z,0.60
2022-08-30T22:25:14.701Z,0.50
2022-08-30T22:27:42.492Z,0.60
2022-08-30T22:30:11.409Z,0.63
2022-08-30T22:32:39.999Z,0.65
2022-08-30T22:35:08.883Z,0.93
2022-08-30T22:37:38.060Z,0.65
2022-08-30T22:40:06.511Z,0.50
2022-08-30T22:42:34.305Z,0.50
2022-08-30T22:45:02.263Z,0.60
2022-08-30T22:47:31.669Z,0.40
2022-08-30T22:49:59.503Z,0.55
2022-08-30T22:52:27.372Z,0.50
2022-08-30T22:54:56.667Z,0.55
2022-08-30T22:57:24.447Z,0.40
2022-08-30T22:59:52.380Z,0.60
2022-08-30T23:02:20.293Z,0.60
2022-08-30T23:04:48.162Z,0.77
2022-08-30T23:07:15.959Z,0.63
2022-08-30T23:09:43.698Z,0.50
2022-08-30T23:12:12.793Z,0.50
2022-08-30T23:14:40.569Z,0.60
2022-08-30T23:17:08.466Z,0.70
2022-08-30T23:19:36.334Z,0.60
2022-08-30T23:22:04.122Z,0.50
2022-08-30T23:24:49.962Z,0.60
2022-08-30T23:27:37.038Z,0.40
2022-08-30T23:30:22.987Z,0.73
2022-08-30T23:33:08.565Z,0.68
2022-08-30T23:35:54.792Z,0.73
2022-08-30T23:38:40.432Z,0.50
2022-08-30T23:41:32.928Z,0.70
2022-08-30T23:44:21.459Z,0.60
2022-08-30T23:47:06.922Z,0.93
2022-08-30T23:49:52.542Z,0.57
2022-08-30T23:52:38.047Z,0.50
2022-08-30T23:55:24.563Z,0.50
2022-08-30T23:58:09.890Z,0.50
